sensor_id;sensor_type;location;lat;lon;timestamp;pressure;altitude;pressure_sealevel;temperature;humidity
61697;BME280;47610;52.252;20.922;2022-12-07T00:00:38;99532.39;;;1.83;100.00
61697;BME280;47610;52.252;20.922;2022-12-07T00:06:01;99527.72;;;1.83;100.00
61697;BME280;47610;52.252;20.922;2022-12-07T00:11:25;99520.23;;;1.86;100.00
61697;BME280;47610;52.252;20.922;2022-12-07T00:16:50;99515.73;;;1.86;100.00
61697;BME280;47610;52.252;20.922;2022-12-07T00:22:14;99511.33;;;1.89;100.00
61697;BME280;47610;52.252;20.922;2022-12-07T00:27:37;99510.15;;;1.91;100.00
61697;BME280;47610;52.252;20.922;2022-12-07T00:32:59;99513.52;;;1.94;100.00
61697;BME280;47610;52.252;20.922;2022-12-07T00:38:22;99506.27;;;1.98;100.00
61697;BME280;47610;52.252;20.922;2022-12-07T00:43:47;99503.33;;;2.01;100.00
61697;BME280;47610;52.252;20.922;2022-12-07T00:49:11;99503.02;;;2.05;100.00
61697;BME280;47610;52.252;20.922;2022-12-07T00:54:33;99499.70;;;2.04;100.00
61697;BME280;47610;52.252;20.922;2022-12-07T00:59:56;99502.15;;;2.07;100.00
61697;BME280;47610;52.252;20.922;2022-12-07T01:05:21;99499.36;;;2.08;100.00
61697;BME280;47610;52.252;20.922;2022-12-07T01:10:46;99492.98;;;2.12;100.00
61697;BME280;47610;52.252;20.922;2022-12-07T01:16:13;99489.17;;;2.12;100.00
61697;BME280;47610;52.252;20.922;2022-12-07T01:21:36;99483.94;;;2.08;100.00
61697;BME280;47610;52.252;20.922;2022-12-07T01:27:00;99484.40;;;2.13;100.00
61697;BME280;47610;52.252;20.922;2022-12-07T01:32:23;99482.05;;;2.15;100.00
61697;BME280;47610;52.252;20.922;2022-12-07T01:37:46;99486.38;;;2.14;100.00
61697;BME280;47610;52.252;20.922;2022-12-07T01:43:16;99489.58;;;2.16;100.00
61697;BME280;47610;52.252;20.922;2022-12-07T01:48:40;99482.17;;;2.22;100.00
61697;BME280;47610;52.252;20.922;2022-12-07T01:54:02;99478.11;;;2.25;100.00
61697;BME280;47610;52.252;20.922;2022-12-07T02:12:27;99471.64;;;2.43;100.00
61697;BME280;47610;52.252;20.922;2022-12-07T02:17:54;99473.90;;;2.45;100.00
61697;BME280;47610;52.252;20.922;2022-12-07T02:23:52;99473.15;;;2.48;100.00
61697;BME280;47610;52.252;20.922;2022-12-07T02:29:27;99475.05;;;2.51;100.00
61697;BME280;47610;52.252;20.922;2022-12-07T02:35:01;99469.23;;;2.51;100.00
61697;BME280;47610;52.252;20.922;2022-12-07T02:40:33;99467.73;;;2.51;100.00
61697;BME280;47610;52.252;20.922;2022-12-07T02:46:04;99468.63;;;2.50;100.00
61697;BME280;47610;52.252;20.922;2022-12-07T02:51:31;99466.09;;;2.51;100.00
61697;BME280;47610;52.252;20.922;2022-12-07T02:57:00;99463.48;;;2.54;100.00
61697;BME280;47610;52.252;20.922;2022-12-07T03:02:35;99461.39;;;2.52;100.00
61697;BME280;47610;52.252;20.922;2022-12-07T03:08:04;99464.34;;;2.48;100.00
61697;BME280;47610;52.252;20.922;2022-12-07T03:13:38;99461.85;;;2.45;100.00
61697;BME280;47610;52.252;20.922;2022-12-07T03:19:10;99458.80;;;2.42;100.00
61697;BME280;47610;52.252;20.922;2022-12-07T03:24:39;99453.71;;;2.36;100.00
61697;BME280;47610;52.252;20.922;2022-12-07T03:30:10;99454.48;;;2.37;100.00
61697;BME280;47610;52.252;20.922;2022-12-07T03:35:38;99445.55;;;2.38;100.00
61697;BME280;47610;52.252;20.922;2022-12-07T03:41:07;99441.77;;;2.37;100.00
61697;BME280;47610;52.252;20.922;2022-12-07T03:46:40;99432.33;;;2.27;100.00
61697;BME280;47610;52.252;20.922;2022-12-07T03:52:17;99426.45;;;2.24;100.00
61697;BME280;47610;52.252;20.922;2022-12-07T03:57:44;99422.20;;;2.21;100.00
61697;BME280;47610;52.252;20.922;2022-12-07T04:03:09;99421.51;;;2.17;100.00
61697;BME280;47610;52.252;20.922;2022-12-07T04:08:33;99419.64;;;2.17;100.00
61697;BME280;47610;52.252;20.922;2022-12-07T04:13:55;99414.95;;;2.13;100.00
61697;BME280;47610;52.252;20.922;2022-12-07T04:19:22;99415.40;;;2.11;100.00
61697;BME280;47610;52.252;20.922;2022-12-07T04:31:08;99414.73;;;2.07;100.00
61697;BME280;47610;52.252;20.922;2022-12-07T04:36:31;99412.20;;;2.01;100.00
61697;BME280;47610;52.252;20.922;2022-12-07T04:41:54;99405.02;;;2.01;100.00
61697;BME280;47610;52.252;20.922;2022-12-07T04:47:16;99406.83;;;1.96;100.00
61697;BME280;47610;52.252;20.922;2022-12-07T04:52:39;99409.11;;;1.87;100.00
61697;BME280;47610;52.252;20.922;2022-12-07T04:58:01;99405.80;;;1.82;100.00
61697;BME280;47610;52.252;20.922;2022-12-07T05:03:24;99401.13;;;1.82;100.00
61697;BME280;47610;52.252;20.922;2022-12-07T05:08:49;99401.02;;;1.79;100.00
61697;BME280;47610;52.252;20.922;2022-12-07T05:14:16;99395.48;;;1.78;100.00
61697;BME280;47610;52.252;20.922;2022-12-07T05:19:39;99392.04;;;1.78;100.00
61697;BME280;47610;52.252;20.922;2022-12-07T05:25:04;99383.10;;;1.76;100.00
61697;BME280;47610;52.252;20.922;2022-12-07T05:30:27;99384.61;;;1.75;100.00
61697;BME280;47610;52.252;20.922;2022-12-07T05:35:50;99380.66;;;1.73;100.00
61697;BME280;47610;52.252;20.922;2022-12-07T05:41:16;99382.60;;;1.72;100.00
61697;BME280;47610;52.252;20.922;2022-12-07T05:46:39;99387.28;;;1.72;100.00
61697;BME280;47610;52.252;20.922;2022-12-07T05:52:02;99386.87;;;1.71;100.00
61697;BME280;47610;52.252;20.922;2022-12-07T05:57:25;99389.80;;;1.71;100.00
61697;BME280;47610;52.252;20.922;2022-12-07T06:02:48;99387.84;;;1.71;100.00
61697;BME280;47610;52.252;20.922;2022-12-07T06:08:10;99386.95;;;1.67;100.00
61697;BME280;47610;52.252;20.922;2022-12-07T06:13:32;99387.59;;;1.67;100.00
61697;BME280;47610;52.252;20.922;2022-12-07T06:18:54;99388.73;;;1.66;100.00
61697;BME280;47610;52.252;20.922;2022-12-07T06:24:17;99385.81;;;1.64;100.00
61697;BME280;47610;52.252;20.922;2022-12-07T06:29:42;99386.64;;;1.59;100.00
61697;BME280;47610;52.252;20.922;2022-12-07T06:35:07;99378.58;;;1.55;100.00
61697;BME280;47610;52.252;20.922;2022-12-07T06:44:28;99377.91;;;1.57;100.00
61697;BME280;47610;52.252;20.922;2022-12-07T06:49:51;99380.45;;;1.57;100.00
61697;BME280;47610;52.252;20.922;2022-12-07T06:55:17;99382.11;;;1.58;100.00
61697;BME280;47610;52.252;20.922;2022-12-07T07:00:42;99382.83;;;1.56;100.00
61697;BME280;47610;52.252;20.922;2022-12-07T07:06:07;99383.17;;;1.57;100.00
61697;BME280;47610;52.252;20.922;2022-12-07T07:11:29;99384.31;;;1.59;100.00
61697;BME280;47610;52.252;20.922;2022-12-07T07:16:51;99384.74;;;1.57;100.00
61697;BME280;47610;52.252;20.922;2022-12-07T07:22:15;99377.98;;;1.55;100.00
61697;BME280;47610;52.252;20.922;2022-12-07T07:27:40;99377.95;;;1.53;100.00
61697;BME280;47610;52.252;20.922;2022-12-07T07:33:04;99381.90;;;1.50;100.00
61697;BME280;47610;52.252;20.922;2022-12-07T07:38:27;99385.37;;;1.49;100.00
61697;BME280;47610;52.252;20.922;2022-12-07T07:43:50;99385.95;;;1.51;100.00
61697;BME280;47610;52.252;20.922;2022-12-07T07:49:13;99385.13;;;1.51;100.00
61697;BME280;47610;52.252;20.922;2022-12-07T07:54:35;99385.39;;;1.50;100.00
61697;BME280;47610;52.252;20.922;2022-12-07T07:59:59;99384.23;;;1.52;100.00
61697;BME280;47610;52.252;20.922;2022-12-07T08:05:22;99386.35;;;1.53;100.00
61697;BME280;47610;52.252;20.922;2022-12-07T08:10:47;99385.20;;;1.55;100.00
61697;BME280;47610;52.252;20.922;2022-12-07T08:16:11;99387.63;;;1.55;100.00
61697;BME280;47610;52.252;20.922;2022-12-07T08:21:33;99394.67;;;1.56;100.00
61697;BME280;47610;52.252;20.922;2022-12-07T08:26:58;99398.21;;;1.60;100.00
61697;BME280;47610;52.252;20.922;2022-12-07T08:32:20;99403.42;;;1.66;100.00
61697;BME280;47610;52.252;20.922;2022-12-07T08:37:44;99411.35;;;1.71;100.00
61697;BME280;47610;52.252;20.922;2022-12-07T08:43:07;99408.65;;;1.72;100.00
61697;BME280;47610;52.252;20.922;2022-12-07T08:48:29;99408.76;;;1.72;100.00
61697;BME280;47610;52.252;20.922;2022-12-07T08:53:50;99410.36;;;1.79;100.00
61697;BME280;47610;52.252;20.922;2022-12-07T09:12:26;99402.02;;;2.37;100.00
61697;BME280;47610;52.252;20.922;2022-12-07T09:17:48;99390.23;;;2.58;100.00
61697;BME280;47610;52.252;20.922;2022-12-07T09:23:08;99389.94;;;2.70;100.00
61697;BME280;47610;52.252;20.922;2022-12-07T09:28:31;99382.86;;;2.83;100.00
61697;BME280;47610;52.252;20.922;2022-12-07T09:33:55;99376.31;;;2.89;100.00
61697;BME280;47610;52.252;20.922;2022-12-07T09:39:16;99375.95;;;2.95;100.00
61697;BME280;47610;52.252;20.922;2022-12-07T09:44:41;99376.87;;;2.98;100.00
61697;BME280;47610;52.252;20.922;2022-12-07T09:50:06;99375.21;;;3.00;100.00
61697;BME280;47610;52.252;20.922;2022-12-07T09:55:29;99372.07;;;2.93;100.00
61697;BME280;47610;52.252;20.922;2022-12-07T10:00:54;99368.92;;;2.57;100.00
61697;BME280;47610;52.252;20.922;2022-12-07T10:06:17;99358.26;;;2.28;100.00
61697;BME280;47610;52.252;20.922;2022-12-07T10:12:03;99354.28;;;2.18;100.00
61697;BME280;47610;52.252;20.922;2022-12-07T10:17:32;99358.02;;;2.11;100.00
61697;BME280;47610;52.252;20.922;2022-12-07T10:23:02;99360.95;;;2.05;100.00
61697;BME280;47610;52.252;20.922;2022-12-07T10:28:27;99357.98;;;2.00;100.00
61697;BME280;47610;52.252;20.922;2022-12-07T10:33:56;99353.52;;;1.96;100.00
61697;BME280;47610;52.252;20.922;2022-12-07T10:39:20;99351.71;;;1.92;100.00
61697;BME280;47610;52.252;20.922;2022-12-07T10:44:41;99350.56;;;1.88;100.00
61697;BME280;47610;52.252;20.922;2022-12-07T10:50:37;99352.23;;;1.88;100.00
61697;BME280;47610;52.252;20.922;2022-12-07T11:10:06;99348.45;;;2.65;100.00
61697;BME280;47610;52.252;20.922;2022-12-07T11:15:33;99343.14;;;2.85;100.00
61697;BME280;47610;52.252;20.922;2022-12-07T11:21:09;99348.94;;;2.99;100.00
61697;BME280;47610;52.252;20.922;2022-12-07T11:26:50;99350.20;;;3.08;100.00
61697;BME280;47610;52.252;20.922;2022-12-07T11:32:30;99347.42;;;3.12;100.00
61697;BME280;47610;52.252;20.922;2022-12-07T11:38:01;99342.20;;;3.13;100.00
61697;BME280;47610;52.252;20.922;2022-12-07T11:43:32;99333.27;;;3.15;100.00
61697;BME280;47610;52.252;20.922;2022-12-07T11:49:01;99333.20;;;3.22;100.00
61697;BME280;47610;52.252;20.922;2022-12-07T11:54:29;99323.68;;;3.32;100.00
61697;BME280;47610;52.252;20.922;2022-12-07T12:00:00;99328.17;;;3.49;100.00
61697;BME280;47610;52.252;20.922;2022-12-07T12:05:26;99327.27;;;3.61;100.00
61697;BME280;47610;52.252;20.922;2022-12-07T12:10:56;99321.80;;;3.57;100.00
61697;BME280;47610;52.252;20.922;2022-12-07T12:16:43;99324.19;;;3.54;100.00
61697;BME280;47610;52.252;20.922;2022-12-07T12:22:17;99320.86;;;3.42;100.00
61697;BME280;47610;52.252;20.922;2022-12-07T12:27:41;99312.03;;;3.35;100.00
61697;BME280;47610;52.252;20.922;2022-12-07T12:33:27;99303.88;;;3.26;100.00
61697;BME280;47610;52.252;20.922;2022-12-07T12:39:07;99298.00;;;3.18;100.00
61697;BME280;47610;52.252;20.922;2022-12-07T12:45:19;99303.73;;;3.11;100.00
61697;BME280;47610;52.252;20.922;2022-12-07T12:50:42;99298.94;;;3.06;100.00
61697;BME280;47610;52.252;20.922;2022-12-07T12:56:34;99295.05;;;3.00;100.00
61697;BME280;47610;52.252;20.922;2022-12-07T13:02:19;99293.91;;;2.94;100.00
61697;BME280;47610;52.252;20.922;2022-12-07T13:07:58;99292.09;;;2.88;100.00
61697;BME280;47610;52.252;20.922;2022-12-07T13:13:36;99290.71;;;2.79;100.00
61697;BME280;47610;52.252;20.922;2022-12-07T13:23:05;99285.24;;;2.72;100.00
61697;BME280;47610;52.252;20.922;2022-12-07T13:28:35;99291.79;;;2.66;100.00
61697;BME280;47610;52.252;20.922;2022-12-07T13:33:58;99281.64;;;2.59;100.00
61697;BME280;47610;52.252;20.922;2022-12-07T13:39:22;99284.12;;;2.58;100.00
61697;BME280;47610;52.252;20.922;2022-12-07T13:44:45;99287.63;;;2.53;100.00
61697;BME280;47610;52.252;20.922;2022-12-07T13:55:54;99292.11;;;2.50;100.00
61697;BME280;47610;52.252;20.922;2022-12-07T14:01:17;99287.27;;;2.46;100.00
61697;BME280;47610;52.252;20.922;2022-12-07T14:06:49;99290.30;;;2.42;100.00
61697;BME280;47610;52.252;20.922;2022-12-07T14:12:13;99289.65;;;2.35;100.00
61697;BME280;47610;52.252;20.922;2022-12-07T14:17:36;99296.21;;;2.34;100.00
61697;BME280;47610;52.252;20.922;2022-12-07T14:23:25;99297.48;;;2.32;100.00
61697;BME280;47610;52.252;20.922;2022-12-07T14:28:48;99300.21;;;2.33;100.00
61697;BME280;47610;52.252;20.922;2022-12-07T14:34:14;99299.23;;;2.33;100.00
61697;BME280;47610;52.252;20.922;2022-12-07T14:39:36;99294.73;;;2.34;100.00
61697;BME280;47610;52.252;20.922;2022-12-07T14:44:59;99293.58;;;2.29;100.00
61697;BME280;47610;52.252;20.922;2022-12-07T14:50:21;99295.16;;;2.15;100.00
61697;BME280;47610;52.252;20.922;2022-12-07T14:55:44;99289.23;;;2.02;100.00
61697;BME280;47610;52.252;20.922;2022-12-07T15:01:06;99294.54;;;1.88;100.00
61697;BME280;47610;52.252;20.922;2022-12-07T15:06:29;99287.45;;;1.73;100.00
61697;BME280;47610;52.252;20.922;2022-12-07T15:11:51;99282.48;;;1.63;100.00
61697;BME280;47610;52.252;20.922;2022-12-07T15:17:14;99278.58;;;1.56;100.00
61697;BME280;47610;52.252;20.922;2022-12-07T15:22:38;99275.19;;;1.55;100.00
61697;BME280;47610;52.252;20.922;2022-12-07T15:28:01;99276.20;;;1.53;100.00
61697;BME280;47610;52.252;20.922;2022-12-07T15:33:23;99269.40;;;1.50;100.00
61697;BME280;47610;52.252;20.922;2022-12-07T15:38:46;99266.01;;;1.48;100.00
61697;BME280;47610;52.252;20.922;2022-12-07T15:44:11;99271.05;;;1.44;100.00
61697;BME280;47610;52.252;20.922;2022-12-07T15:49:32;99270.25;;;1.42;100.00
61697;BME280;47610;52.252;20.922;2022-12-07T15:54:54;99264.70;;;1.44;100.00
61697;BME280;47610;52.252;20.922;2022-12-07T16:00:20;99266.73;;;1.49;100.00
61697;BME280;47610;52.252;20.922;2022-12-07T16:05:40;99263.39;;;1.53;100.00
61697;BME280;47610;52.252;20.922;2022-12-07T16:23:03;99258.34;;;1.75;100.00
61697;BME280;47610;52.252;20.922;2022-12-07T16:28:25;99255.34;;;1.77;100.00
61697;BME280;47610;52.252;20.922;2022-12-07T16:33:48;99259.78;;;1.83;100.00
61697;BME280;47610;52.252;20.922;2022-12-07T16:39:11;99266.31;;;1.88;100.00
61697;BME280;47610;52.252;20.922;2022-12-07T16:44:32;99263.01;;;1.91;100.00
61697;BME280;47610;52.252;20.922;2022-12-07T16:49:55;99253.30;;;1.94;100.00
61697;BME280;47610;52.252;20.922;2022-12-07T16:55:17;99246.63;;;1.95;100.00
61697;BME280;47610;52.252;20.922;2022-12-07T17:00:40;99247.77;;;1.96;100.00
61697;BME280;47610;52.252;20.922;2022-12-07T17:06:02;99240.52;;;1.97;100.00
61697;BME280;47610;52.252;20.922;2022-12-07T17:11:25;99240.65;;;2.02;100.00
61697;BME280;47610;52.252;20.922;2022-12-07T17:16:47;99238.93;;;2.06;100.00
61697;BME280;47610;52.252;20.922;2022-12-07T17:22:09;99240.19;;;2.07;100.00
61697;BME280;47610;52.252;20.922;2022-12-07T17:27:32;99241.86;;;2.10;100.00
61697;BME280;47610;52.252;20.922;2022-12-07T17:32:54;99243.85;;;2.16;100.00
61697;BME280;47610;52.252;20.922;2022-12-07T17:38:16;99247.00;;;2.23;100.00
61697;BME280;47610;52.252;20.922;2022-12-07T17:43:38;99250.03;;;2.29;100.00
61697;BME280;47610;52.252;20.922;2022-12-07T17:49:00;99250.33;;;2.32;100.00
61697;BME280;47610;52.252;20.922;2022-12-07T17:54:22;99248.05;;;2.31;100.00
61697;BME280;47610;52.252;20.922;2022-12-07T17:59:44;99251.40;;;2.31;100.00
61697;BME280;47610;52.252;20.922;2022-12-07T18:05:07;99245.59;;;2.27;100.00
61697;BME280;47610;52.252;20.922;2022-12-07T18:10:29;99246.55;;;2.25;100.00
61697;BME280;47610;52.252;20.922;2022-12-07T18:15:57;99243.72;;;2.25;100.00
61697;BME280;47610;52.252;20.922;2022-12-07T18:21:20;99256.62;;;2.23;100.00
61697;BME280;47610;52.252;20.922;2022-12-07T18:26:43;99279.27;;;2.13;100.00
61697;BME280;47610;52.252;20.922;2022-12-07T18:32:05;99275.09;;;1.89;100.00
61697;BME280;47610;52.252;20.922;2022-12-07T18:50:39;99274.36;;;1.64;100.00
61697;BME280;47610;52.252;20.922;2022-12-07T18:56:06;99278.74;;;1.63;100.00
61697;BME280;47610;52.252;20.922;2022-12-07T19:01:29;99276.88;;;1.65;100.00
61697;BME280;47610;52.252;20.922;2022-12-07T19:06:51;99276.76;;;1.66;100.00
61697;BME280;47610;52.252;20.922;2022-12-07T19:12:14;99279.33;;;1.67;100.00
61697;BME280;47610;52.252;20.922;2022-12-07T19:17:37;99288.69;;;1.70;100.00
61697;BME280;47610;52.252;20.922;2022-12-07T19:22:59;99294.85;;;1.71;100.00
61697;BME280;47610;52.252;20.922;2022-12-07T19:28:21;99301.90;;;1.65;100.00
61697;BME280;47610;52.252;20.922;2022-12-07T19:33:43;99301.88;;;1.61;100.00
61697;BME280;47610;52.252;20.922;2022-12-07T19:39:07;99306.80;;;1.61;100.00
61697;BME280;47610;52.252;20.922;2022-12-07T19:44:29;99310.45;;;1.62;100.00
61697;BME280;47610;52.252;20.922;2022-12-07T19:49:51;99313.81;;;1.61;100.00
61697;BME280;47610;52.252;20.922;2022-12-07T19:55:14;99320.54;;;1.64;100.00
61697;BME280;47610;52.252;20.922;2022-12-07T20:00:36;99327.79;;;1.63;100.00
61697;BME280;47610;52.252;20.922;2022-12-07T20:05:59;99341.27;;;1.63;100.00
61697;BME280;47610;52.252;20.922;2022-12-07T20:11:22;99352.10;;;1.58;100.00
61697;BME280;47610;52.252;20.922;2022-12-07T20:16:45;99355.23;;;1.54;100.00
61697;BME280;47610;52.252;20.922;2022-12-07T20:22:09;99357.20;;;1.51;100.00
61697;BME280;47610;52.252;20.922;2022-12-07T20:27:31;99357.65;;;1.52;100.00
61697;BME280;47610;52.252;20.922;2022-12-07T20:32:54;99360.30;;;1.53;100.00
61697;BME280;47610;52.252;20.922;2022-12-07T20:38:17;99370.06;;;1.52;100.00
61697;BME280;47610;52.252;20.922;2022-12-07T20:43:40;99381.27;;;1.48;100.00
61697;BME280;47610;52.252;20.922;2022-12-07T20:49:03;99384.71;;;1.33;100.00
61697;BME280;47610;52.252;20.922;2022-12-07T20:54:25;99387.52;;;1.20;100.00
61697;BME280;47610;52.252;20.922;2022-12-07T20:59:47;99385.91;;;1.08;100.00
61697;BME280;47610;52.252;20.922;2022-12-07T21:10:30;99385.48;;;0.88;100.00
61697;BME280;47610;52.252;20.922;2022-12-07T21:15:53;99390.10;;;0.80;100.00
61697;BME280;47610;52.252;20.922;2022-12-07T21:21:16;99398.36;;;0.72;100.00
61697;BME280;47610;52.252;20.922;2022-12-07T21:26:40;99399.56;;;0.62;100.00
61697;BME280;47610;52.252;20.922;2022-12-07T21:32:04;99410.46;;;0.54;100.00
61697;BME280;47610;52.252;20.922;2022-12-07T21:37:28;99413.23;;;0.48;100.00
61697;BME280;47610;52.252;20.922;2022-12-07T21:42:53;99408.93;;;0.45;100.00
61697;BME280;47610;52.252;20.922;2022-12-07T21:48:14;99409.62;;;0.39;100.00
61697;BME280;47610;52.252;20.922;2022-12-07T21:53:41;99409.23;;;0.37;100.00
61697;BME280;47610;52.252;20.922;2022-12-07T21:59:07;99414.32;;;0.39;100.00
61697;BME280;47610;52.252;20.922;2022-12-07T22:04:30;99406.84;;;0.41;100.00
61697;BME280;47610;52.252;20.922;2022-12-07T22:09:52;99411.58;;;0.42;100.00
61697;BME280;47610;52.252;20.922;2022-12-07T22:15:16;99416.48;;;0.45;100.00
61697;BME280;47610;52.252;20.922;2022-12-07T22:20:40;99414.10;;;0.50;100.00
61697;BME280;47610;52.252;20.922;2022-12-07T22:26:06;99413.59;;;0.53;100.00
61697;BME280;47610;52.252;20.922;2022-12-07T22:31:30;99409.73;;;0.62;100.00
61697;BME280;47610;52.252;20.922;2022-12-07T22:36:52;99412.48;;;0.73;100.00
61697;BME280;47610;52.252;20.922;2022-12-07T22:42:14;99413.59;;;0.81;100.00
61697;BME280;47610;52.252;20.922;2022-12-07T22:47:39;99410.72;;;0.83;100.00
61697;BME280;47610;52.252;20.922;2022-12-07T22:53:03;99410.91;;;0.77;100.00
61697;BME280;47610;52.252;20.922;2022-12-07T22:58:26;99410.77;;;0.72;100.00
61697;BME280;47610;52.252;20.922;2022-12-07T23:03:49;99405.63;;;0.69;100.00
61697;BME280;47610;52.252;20.922;2022-12-07T23:09:12;99411.32;;;0.70;100.00
61697;BME280;47610;52.252;20.922;2022-12-07T23:14:35;99413.52;;;0.69;100.00
61697;BME280;47610;52.252;20.922;2022-12-07T23:23:50;99419.23;;;0.67;100.00
61697;BME280;47610;52.252;20.922;2022-12-07T23:29:14;99427.77;;;0.63;100.00
61697;BME280;47610;52.252;20.922;2022-12-07T23:34:37;99425.52;;;0.63;100.00
61697;BME280;47610;52.252;20.922;2022-12-07T23:40:00;99428.89;;;0.63;100.00
61697;BME280;47610;52.252;20.922;2022-12-07T23:45:23;99428.23;;;0.65;100.00
61697;BME280;47610;52.252;20.922;2022-12-07T23:50:45;99428.89;;;0.68;100.00
61697;BME280;47610;52.252;20.922;2022-12-07T23:56:12;99424.19;;;0.68;100.00
